3NY1 weather

Miller Airport
Canastota, New York, United States

Public forecast

Using degrees Fahrenheit for public forecast. Weather courtesy of forecast.io.

Closest aviation weather report (METAR) to Miller Airport

Closest report is Syracuse Hancock International Airport, 14.3 nm (26.5 km) W. Retrieved 2019/10/23 20:54 UTC (56 minutes ago):

KSYR 232054Z 26015G22KT 10SM FEW040 SCT065 14/01 A2998 RMK AO2 SLP149 T01440006 53019

Closest aviation forecast (TAF) to Miller Airport

Closest forecast is Syracuse Hancock International Airport, 14.3 nm (26.5 km) W. Retrieved 2019/10/23 18:30 UTC (3 hours ago):

TAF KSYR 231729Z 2318/2418 26012G21KT P6SM BKN040 FM232300 25009KT P6SM FEW250 FM241000 18006KT P6SM SCT090 WS015/24035KT FM241500 22010G18KT P6SM SCT040 BKN100